Time,TemperatureF,DewpointF,PressureIn,WindDirection,WindDirectionDegrees,WindSpeedMPH,WindSpeedGustMPH,Humidity,HourlyPrecipIn,Conditions,Clouds,dailyrainin,SoftwareType,DateUTC
2013-07-28 00:02:00,76.0,72.0,29.98,ENE,74,0.0,0.0,87,0.00,,,0.00,,2013-07-28 04:02:00,
2013-07-28 00:12:00,76.0,72.0,29.98,ENE,74,0.0,0.0,88,0.00,,,0.00,,2013-07-28 04:12:00,
2013-07-28 00:22:00,76.0,72.0,29.98,ENE,74,0.0,0.0,88,0.00,,,0.00,,2013-07-28 04:22:00,
2013-07-28 00:32:00,75.0,71.0,29.97,ENE,74,0.0,0.0,88,0.00,,,0.00,,2013-07-28 04:32:00,
2013-07-28 00:43:00,75.0,71.0,29.98,ENE,74,0.0,0.0,88,0.00,,,0.00,,2013-07-28 04:43:00,
2013-07-28 00:53:00,75.0,71.0,29.98,ENE,74,0.0,0.0,88,0.00,,,0.00,,2013-07-28 04:53:00,
2013-07-28 01:02:00,75.0,71.0,29.98,ENE,74,0.0,0.0,88,0.00,,,0.00,,2013-07-28 05:02:00,
2013-07-28 01:12:00,75.0,71.0,29.98,ENE,74,0.0,0.0,88,0.00,,,0.00,,2013-07-28 05:12:00,
2013-07-28 01:22:00,74.0,70.0,29.97,ENE,74,0.0,0.0,88,0.00,,,0.00,,2013-07-28 05:22:00,
2013-07-28 01:32:00,74.0,70.0,29.97,ENE,74,0.0,0.0,88,0.00,,,0.00,,2013-07-28 05:32:00,
2013-07-28 01:43:00,74.0,70.0,29.97,ENE,74,0.0,0.0,88,0.00,,,0.00,,2013-07-28 05:43:00,
2013-07-28 01:53:00,74.0,70.0,29.97,ENE,74,0.0,0.0,88,0.00,,,0.00,,2013-07-28 05:53:00,
2013-07-28 02:02:00,74.0,70.0,29.97,ENE,74,0.0,0.0,88,0.00,,,0.00,,2013-07-28 06:02:00,
2013-07-28 02:12:00,74.0,70.0,29.96,ENE,74,0.0,0.0,88,0.00,,,0.00,,2013-07-28 06:12:00,
2013-07-28 02:22:00,74.0,70.0,29.96,ENE,74,0.0,0.0,88,0.00,,,0.00,,2013-07-28 06:22:00,
2013-07-28 02:32:00,73.0,69.0,29.96,ENE,74,0.0,0.0,88,0.00,,,0.00,,2013-07-28 06:32:00,
2013-07-28 02:43:00,73.0,69.0,29.95,ENE,74,0.0,0.0,87,0.00,,,0.00,,2013-07-28 06:43:00,
2013-07-28 02:52:00,73.0,69.0,29.95,ENE,74,0.0,0.0,87,0.00,,,0.00,,2013-07-28 06:52:00,
2013-07-28 03:02:00,73.0,69.0,29.94,ENE,74,0.0,0.0,88,0.00,,,0.00,,2013-07-28 07:02:00,
2013-07-28 03:12:00,73.0,69.0,29.94,ENE,74,0.0,0.0,88,0.00,,,0.00,,2013-07-28 07:12:00,
2013-07-28 03:23:00,73.0,69.0,29.94,ENE,74,0.0,0.0,87,0.00,,,0.00,,2013-07-28 07:23:00,
2013-07-28 03:32:00,73.0,69.0,29.94,ENE,74,0.0,0.0,87,0.00,,,0.00,,2013-07-28 07:32:00,
2013-07-28 03:43:00,73.0,69.0,29.94,ENE,74,0.0,0.0,87,0.00,,,0.00,,2013-07-28 07:43:00,
2013-07-28 03:53:00,73.0,69.0,29.93,ENE,74,0.0,0.0,87,0.00,,,0.00,,2013-07-28 07:53:00,
2013-07-28 04:02:00,72.0,68.0,29.93,ENE,74,0.0,0.0,87,0.00,,,0.00,,2013-07-28 08:02:00,
2013-07-28 04:12:00,72.0,68.0,29.93,ENE,74,0.0,0.0,87,0.00,,,0.00,,2013-07-28 08:12:00,
2013-07-28 04:22:00,72.0,68.0,29.93,ENE,74,0.0,0.0,87,0.00,,,0.00,,2013-07-28 08:22:00,
2013-07-28 04:33:00,72.0,68.0,29.93,ENE,74,0.0,0.0,87,0.00,,,0.00,,2013-07-28 08:33:00,
2013-07-28 04:42:00,72.0,68.0,29.93,ENE,74,0.0,0.0,87,0.00,,,0.00,,2013-07-28 08:42:00,
2013-07-28 04:53:00,72.0,68.0,29.93,ENE,74,0.0,0.0,87,0.00,,,0.00,,2013-07-28 08:53:00,
2013-07-28 05:32:00,72.0,68.0,29.94,ENE,74,0.0,0.0,87,0.00,,,0.00,,2013-07-28 09:32:00,
2013-07-28 05:43:00,72.0,68.0,29.95,ENE,74,0.0,0.0,87,0.00,,,0.00,,2013-07-28 09:43:00,
2013-07-28 05:53:00,72.0,68.0,29.95,ENE,74,0.0,0.0,87,0.00,,,0.00,,2013-07-28 09:53:00,
2013-07-28 06:02:00,72.0,68.0,29.95,ENE,74,0.0,0.0,87,0.00,,,0.00,,2013-07-28 10:02:00,
2013-07-28 06:12:00,72.0,68.0,29.95,ENE,74,0.0,0.0,87,0.00,,,0.00,,2013-07-28 10:12:00,
2013-07-28 06:22:00,72.0,68.0,29.95,ENE,74,0.0,0.0,87,0.00,,,0.00,,2013-07-28 10:22:00,
2013-07-28 07:12:00,71.0,67.0,29.96,ENE,74,0.0,0.0,87,0.00,,,0.00,,2013-07-28 11:12:00,
2013-07-28 07:22:00,71.0,67.0,29.96,ENE,74,0.0,0.0,87,0.00,,,0.00,,2013-07-28 11:22:00,
2013-07-28 07:33:00,71.0,67.0,29.96,ENE,74,0.0,0.0,87,0.00,,,0.00,,2013-07-28 11:33:00,
2013-07-28 07:43:00,71.0,67.0,29.97,ENE,74,0.0,0.0,88,0.00,,,0.00,,2013-07-28 11:43:00,
2013-07-28 07:54:00,71.0,67.0,29.97,ENE,74,0.0,0.0,88,0.00,,,0.00,,2013-07-28 11:54:00,
2013-07-28 08:02:00,71.0,67.0,29.97,ENE,74,0.0,0.0,88,0.00,,,0.00,,2013-07-28 12:02:00,
2013-07-28 08:12:00,73.0,69.0,29.98,ENE,74,0.0,0.0,88,0.00,,,0.00,,2013-07-28 12:12:00,
2013-07-28 08:22:00,73.0,69.0,29.98,ENE,74,0.0,0.0,88,0.00,,,0.00,,2013-07-28 12:22:00,
2013-07-28 08:33:00,76.0,72.0,29.98,ENE,74,0.0,0.0,88,0.00,,,0.00,,2013-07-28 12:33:00,
2013-07-28 08:43:00,77.0,72.0,29.98,ENE,74,0.0,0.0,86,0.00,,,0.00,,2013-07-28 12:43:00,
2013-07-28 08:53:00,79.0,75.0,29.98,ENE,74,0.0,0.0,87,0.00,,,0.00,,2013-07-28 12:53:00,
2013-07-28 09:02:00,79.0,75.0,29.98,ENE,74,0.0,0.0,87,0.00,,,0.00,,2013-07-28 13:02:00,
2013-07-28 09:12:00,82.0,77.0,29.99,ENE,74,0.0,0.0,84,0.00,,,0.00,,2013-07-28 13:12:00,
2013-07-28 09:22:00,83.0,76.0,29.99,ENE,74,0.0,0.0,80,0.00,,,0.00,,2013-07-28 13:22:00,
2013-07-28 09:32:00,83.0,76.0,29.99,ENE,74,0.0,0.0,80,0.00,,,0.00,,2013-07-28 13:32:00,
2013-07-28 09:43:00,83.0,76.0,29.99,ENE,74,0.0,0.0,80,0.00,,,0.00,,2013-07-28 13:43:00,
2013-07-28 09:52:00,86.0,76.0,30.00,ENE,74,0.0,0.0,73,0.00,,,0.00,,2013-07-28 13:52:00,
2013-07-28 10:02:00,88.0,77.0,30.00,NNE,15,1.0,1.0,70,0.00,,,0.00,,2013-07-28 14:02:00,
2013-07-28 10:12:00,89.0,76.0,30.00,North,360,0.0,2.0,66,0.00,,,0.00,,2013-07-28 14:12:00,
2013-07-28 10:23:00,89.0,77.0,30.00,North,360,0.0,1.0,67,0.00,,,0.00,,2013-07-28 14:23:00,
2013-07-28 10:33:00,89.0,77.0,30.00,North,360,0.0,1.0,67,0.00,,,0.00,,2013-07-28 14:33:00,
2013-07-28 10:43:00,89.0,77.0,30.00,North,360,0.0,1.0,67,0.00,,,0.00,,2013-07-28 14:43:00,
2013-07-28 10:53:00,89.0,77.0,30.00,North,360,0.0,1.0,67,0.00,,,0.00,,2013-07-28 14:53:00,
2013-07-28 11:23:00,89.0,74.0,30.01,West,276,0.0,0.0,62,0.00,,,0.00,,2013-07-28 15:23:00,
2013-07-28 11:33:00,89.0,74.0,30.01,West,276,0.0,0.0,62,0.00,,,0.00,,2013-07-28 15:33:00,
2013-07-28 11:43:00,91.0,74.0,30.01,SW,234,1.0,4.0,58,0.00,,,0.00,,2013-07-28 15:43:00,
2013-07-28 11:53:00,91.0,74.0,30.01,WSW,237,0.0,3.0,57,0.00,,,0.00,,2013-07-28 15:53:00,
2013-07-28 12:02:00,91.0,74.0,30.01,SE,127,0.0,4.0,58,0.00,,,0.00,,2013-07-28 16:02:00,
2013-07-28 12:12:00,91.0,74.0,30.01,SE,127,0.0,4.0,58,0.00,,,0.00,,2013-07-28 16:12:00,
2013-07-28 12:22:00,92.0,75.0,30.01,SSE,159,0.0,2.0,57,0.00,,,0.00,,2013-07-28 16:22:00,
2013-07-28 12:33:00,92.0,75.0,30.01,SSE,159,0.0,2.0,57,0.00,,,0.00,,2013-07-28 16:33:00,
2013-07-28 12:43:00,92.0,74.0,30.01,South,184,2.0,3.0,56,0.00,,,0.00,,2013-07-28 16:43:00,
2013-07-28 12:52:00,92.0,73.0,30.00,SE,146,0.0,3.0,55,0.00,,,0.00,,2013-07-28 16:52:00,
2013-07-28 13:02:00,92.0,73.0,30.00,SE,146,0.0,3.0,55,0.00,,,0.00,,2013-07-28 17:02:00,
2013-07-28 13:13:00,95.0,75.0,30.00,West,275,1.0,4.0,52,0.00,,,0.00,,2013-07-28 17:13:00,
2013-07-28 13:23:00,95.0,75.0,30.00,West,275,1.0,4.0,52,0.00,,,0.00,,2013-07-28 17:23:00,
2013-07-28 13:32:00,94.0,74.0,29.99,SSE,163,0.0,4.0,53,0.00,,,0.00,,2013-07-28 17:32:00,
2013-07-28 13:43:00,93.0,76.0,30.00,West,262,2.0,5.0,58,0.00,,,0.00,,2013-07-28 17:43:00,
2013-07-28 13:53:00,93.0,76.0,30.00,West,262,2.0,5.0,58,0.00,,,0.00,,2013-07-28 17:53:00,
2013-07-28 14:02:00,92.0,77.0,30.00,SSW,205,0.0,1.0,61,0.00,,,0.00,,2013-07-28 18:02:00,
2013-07-28 14:03:00,93.0,76.0,30.00,West,262,2.0,5.0,58,0.00,,,0.00,,2013-07-28 18:03:00,
2013-07-28 14:12:00,94.0,77.0,30.00,WSW,251,2.0,5.0,58,0.00,,,0.00,,2013-07-28 18:12:00,
2013-07-28 14:22:00,92.0,77.0,30.00,SSW,205,0.0,1.0,61,0.00,,,0.00,,2013-07-28 18:22:00,
2013-07-28 14:33:00,92.0,77.0,30.00,SSW,205,0.0,1.0,61,0.00,,,0.00,,2013-07-28 18:33:00,
2013-07-28 14:43:00,92.0,77.0,30.00,SSW,205,0.0,1.0,61,0.00,,,0.00,,2013-07-28 18:43:00,
2013-07-28 14:52:00,92.0,77.0,30.00,SSW,205,0.0,1.0,61,0.00,,,0.00,,2013-07-28 18:52:00,
2013-07-28 15:12:00,92.0,77.0,29.98,SSW,197,1.0,8.0,61,0.00,,,0.00,,2013-07-28 19:12:00,
2013-07-28 15:22:00,93.0,77.0,29.98,West,260,3.0,6.0,60,0.00,,,0.00,,2013-07-28 19:22:00,
2013-07-28 15:33:00,92.0,76.0,29.97,NW,315,1.0,9.0,60,0.00,,,0.00,,2013-07-28 19:33:00,
2013-07-28 15:43:00,92.0,77.0,29.97,SSW,207,6.0,10.0,61,0.00,,,0.00,,2013-07-28 19:43:00,
2013-07-28 15:52:00,93.0,77.0,29.97,WSW,238,0.0,8.0,59,0.00,,,0.00,,2013-07-28 19:52:00,
2013-07-28 16:53:00,84.0,71.0,30.00,East,82,2.0,5.0,65,0.00,,,0.00,,2013-07-28 20:53:00,
2013-07-28 17:13:00,85.0,72.0,30.00,NE,45,0.0,6.0,65,0.00,,,0.00,,2013-07-28 21:13:00,
2013-07-28 17:22:00,85.0,72.0,30.00,NE,45,0.0,6.0,65,0.00,,,0.00,,2013-07-28 21:22:00,
2013-07-28 17:33:00,87.0,72.0,29.98,NNE,32,1.0,3.0,61,0.00,,,0.00,,2013-07-28 21:33:00,
2013-07-28 17:44:00,88.0,73.0,29.98,North,355,0.0,3.0,61,0.00,,,0.00,,2013-07-28 21:44:00,
2013-07-28 18:02:00,91.0,76.0,29.98,NNW,344,0.0,3.0,61,0.00,,,0.00,,2013-07-28 22:02:00,
2013-07-28 18:12:00,92.0,75.0,29.98,West,269,0.0,7.0,58,0.00,,,0.00,,2013-07-28 22:12:00,
2013-07-28 18:22:00,92.0,75.0,29.98,West,269,0.0,7.0,58,0.00,,,0.00,,2013-07-28 22:22:00,
2013-07-28 18:32:00,92.0,76.0,29.98,WSW,242,1.0,5.0,59,0.00,,,0.00,,2013-07-28 22:32:00,
2013-07-28 18:43:00,90.0,75.0,29.98,WNW,296,3.0,5.0,61,0.00,,,0.00,,2013-07-28 22:43:00,
2013-07-28 18:52:00,90.0,75.0,29.98,WNW,296,3.0,5.0,61,0.00,,,0.00,,2013-07-28 22:52:00,
2013-07-28 19:03:00,90.0,75.0,29.98,WNW,296,3.0,5.0,61,0.00,,,0.00,,2013-07-28 23:03:00,
2013-07-28 19:12:00,90.0,75.0,29.98,WNW,296,3.0,5.0,61,0.00,,,0.00,,2013-07-28 23:12:00,
2013-07-28 19:43:00,88.0,74.0,29.99,West,278,1.0,4.0,63,0.00,,,0.00,,2013-07-28 23:43:00,
2013-07-28 19:53:00,88.0,74.0,29.99,West,278,1.0,4.0,63,0.00,,,0.00,,2013-07-28 23:53:00,
2013-07-28 20:03:00,87.0,74.0,30.00,NW,310,0.0,3.0,65,0.00,,,0.00,,2013-07-29 00:03:00,
2013-07-28 20:12:00,86.0,75.0,30.03,NW,309,1.0,1.0,69,0.00,,,0.00,,2013-07-29 00:12:00,
2013-07-28 20:22:00,86.0,74.0,30.02,NW,309,0.0,1.0,68,0.00,,,0.00,,2013-07-29 00:22:00,
2013-07-28 20:32:00,86.0,75.0,30.03,NW,309,1.0,1.0,69,0.00,,,0.00,,2013-07-29 00:32:00,
2013-07-28 20:43:00,86.0,75.0,30.03,NW,309,1.0,1.0,69,0.00,,,0.00,,2013-07-29 00:43:00,
2013-07-28 20:52:00,86.0,75.0,30.03,NW,309,1.0,1.0,69,0.00,,,0.00,,2013-07-29 00:52:00,
2013-07-28 21:02:00,86.0,75.0,30.03,NW,309,1.0,1.0,69,0.00,,,0.00,,2013-07-29 01:02:00,
2013-07-28 21:29:00,82.0,74.0,30.04,NW,309,0.0,0.0,78,0.00,,,0.00,,2013-07-29 01:29:00,
2013-07-28 21:32:00,80.0,74.0,30.05,NW,309,0.0,0.0,82,0.00,,,0.00,,2013-07-29 01:32:00,
2013-07-28 21:39:00,82.0,74.0,30.04,NW,309,0.0,0.0,78,0.00,,,0.00,,2013-07-29 01:39:00,
2013-07-28 21:47:00,80.0,73.0,30.04,NW,309,0.0,0.0,80,0.00,,,0.00,,2013-07-29 01:47:00,
2013-07-28 22:01:00,80.0,74.0,30.05,NW,309,0.0,0.0,82,0.00,,,0.00,,2013-07-29 02:01:00,
2013-07-28 22:14:00,80.0,74.0,30.05,NW,309,0.0,0.0,82,0.00,,,0.00,,2013-07-29 02:14:00,
2013-07-28 22:25:00,80.0,74.0,30.05,NW,309,0.0,0.0,82,0.00,,,0.00,,2013-07-29 02:25:00,
2013-07-28 22:50:00,78.0,73.0,30.04,NW,309,0.0,0.0,85,0.00,,,0.00,,2013-07-29 02:50:00,
2013-07-28 22:59:00,78.0,73.0,30.04,NW,309,0.0,0.0,85,0.00,,,0.00,,2013-07-29 02:59:00,
2013-07-28 23:05:00,78.0,73.0,30.04,NW,309,0.0,0.0,85,0.00,,,0.00,,2013-07-29 03:05:00,
2013-07-28 23:17:00,78.0,73.0,30.04,NW,309,0.0,0.0,86,0.00,,,0.00,,2013-07-29 03:17:00,
2013-07-28 23:24:00,77.0,72.0,30.04,NW,309,0.0,0.0,86,0.00,,,0.00,,2013-07-29 03:24:00,
2013-07-28 23:36:00,77.0,72.0,30.04,NW,309,0.0,0.0,86,0.00,,,0.00,,2013-07-29 03:36:00,
2013-07-28 23:48:00,77.0,72.0,30.04,NW,309,0.0,0.0,86,0.00,,,0.00,,2013-07-29 03:48:00,
2013-07-28 23:56:00,77.0,72.0,30.04,NW,309,0.0,0.0,86,0.00,,,0.00,,2013-07-29 03:56:00,